Time;durP1;ratioP1;P1;durP2;ratioP2;P2;SDS_P1;SDS_P2;PMS_P1;PMS_P2;Temp;Humidity;BMP_temperature;BMP_pressure;BME280_temperature;BME280_humidity;BME280_pressure;Samples;Min_cycle;Max_cycle;Signal;HPM_P1;HPM_P2
2023/10/17 00:00:28;;;;;;;;;;;;;;;6.22;67.72;100175.69;1088667;54;904;-83
2023/10/17 00:01:44;;;;;;;;;;;;;;;6.21;67.79;100169.53;1088633;46;947;-83
2023/10/17 00:02:45;;;;;;;;;;;;;;;6.26;67.58;100177.16;1088647;54;954;-84
2023/10/17 00:03:48;;;;;;;;;;;;;;;6.23;67.83;100172.94;1088460;47;919;-82
2023/10/17 00:04:50;;;;;;;;;;;;;;;6.24;67.37;100164.00;1088506;46;1051;-84
2023/10/17 00:05:55;;;;;;;;;;;;;;;6.23;67.77;100174.75;1088542;54;1405;-81
2023/10/17 00:06:58;;;;;;;;;;;;;;;6.23;67.94;100166.78;1088461;54;1848;-82
2023/10/17 00:08:09;;;;;;;;;;;;;;;6.16;68.10;100169.03;1088468;54;946;-84
2023/10/17 00:09:09;;;;;;;;;;;;;;;6.23;67.52;100161.47;1088538;54;919;-83
2023/10/17 00:10:17;;;;;;;;;;;;;;;6.19;67.67;100162.66;1088446;47;913;-81
2023/10/17 00:11:18;;;;;;;;;;;;;;;6.24;67.70;100155.16;1088648;54;900;-82
2023/10/17 00:12:39;;;;;;;;;;;;;;;6.27;67.77;100157.59;1088645;46;1095;-83
2023/10/17 00:13:45;;;;;;;;;;;;;;;6.31;67.27;100153.78;1088751;46;924;-82
2023/10/17 00:15:09;;;;;;;;;;;;;;;6.35;66.88;100152.56;1088671;46;1145;-83
2023/10/17 00:16:12;;;;;;;;;;;;;;;6.39;67.05;100156.69;1088669;47;854;-83
2023/10/17 00:17:16;;;;;;;;;;;;;;;6.42;67.11;100154.78;1088603;47;959;-82
2023/10/17 00:18:18;;;;;;;;;;;;;;;6.46;66.81;100150.91;1088504;47;835;-83
2023/10/17 00:19:24;;;;;;;;;;;;;;;6.41;66.75;100148.59;1088586;54;900;-84
2023/10/17 00:20:37;;;;;;;;;;;;;;;6.42;66.90;100144.16;1088685;54;970;-84
2023/10/17 00:21:39;;;;;;;;;;;;;;;6.39;66.74;100134.59;1088499;46;1021;-82
2023/10/17 00:22:43;;;;;;;;;;;;;;;6.42;66.59;100144.16;1088602;54;982;-82
2023/10/17 00:23:47;;;;;;;;;;;;;;;6.44;66.61;100139.56;1088611;54;937;-84
2023/10/17 00:24:51;;;;;;;;;;;;;;;6.38;66.99;100133.75;1088610;54;1038;-83
2023/10/17 00:25:53;;;;;;;;;;;;;;;6.41;67.03;100138.00;1088592;54;1412;-83
2023/10/17 00:26:57;;;;;;;;;;;;;;;6.43;66.92;100132.53;1088473;51;1865;-82
2023/10/17 00:27:58;;;;;;;;;;;;;;;6.47;66.72;100126.88;1088731;46;889;-83
2023/10/17 00:29:10;;;;;;;;;;;;;;;6.49;66.72;100118.81;1088572;54;999;-83
2023/10/17 00:30:16;;;;;;;;;;;;;;;6.45;66.78;100120.00;1088455;46;938;-84
2023/10/17 00:31:21;;;;;;;;;;;;;;;6.44;66.58;100116.53;1088580;46;989;-82
2023/10/17 00:32:31;;;;;;;;;;;;;;;6.42;66.60;100117.59;1088432;54;1007;-83
2023/10/17 00:33:37;;;;;;;;;;;;;;;6.42;66.69;100109.63;1088334;47;907;-83
2023/10/17 00:34:38;;;;;;;;;;;;;;;6.46;66.38;100111.09;1088645;54;935;-83
2023/10/17 00:35:45;;;;;;;;;;;;;;;6.47;66.60;100115.44;1088712;47;1370;-82
2023/10/17 00:37:00;;;;;;;;;;;;;;;6.45;66.77;100109.38;1088334;47;853;-82
2023/10/17 00:38:04;;;;;;;;;;;;;;;6.46;66.95;100108.44;1088586;46;931;-82
2023/10/17 00:39:11;;;;;;;;;;;;;;;6.46;66.96;100114.59;1088763;47;972;-82
2023/10/17 00:40:34;;;;;;;;;;;;;;;6.38;67.19;100107.22;1088476;54;945;-83
2023/10/17 00:41:50;;;;;;;;;;;;;;;6.34;67.08;100100.41;1088413;47;868;-83
2023/10/17 00:42:50;;;;;;;;;;;;;;;6.35;67.15;100103.94;1088469;47;975;-83
2023/10/17 00:43:55;;;;;;;;;;;;;;;6.35;67.21;100103.94;1087781;54;1088;-83
2023/10/17 00:44:56;;;;;;;;;;;;;;;6.31;67.46;100095.38;1088449;54;1009;-83
2023/10/17 00:45:59;;;;;;;;;;;;;;;6.28;67.58;100098.25;1088336;47;1229;-83
2023/10/17 00:47:00;;;;;;;;;;;;;;;6.36;67.07;100103.81;1088268;47;1839;-83
2023/10/17 00:48:08;;;;;;;;;;;;;;;6.39;66.85;100098.28;1088289;47;916;-84
2023/10/17 00:49:10;;;;;;;;;;;;;;;6.38;67.09;100101.03;1088412;54;961;-82
2023/10/17 00:50:16;;;;;;;;;;;;;;;6.37;66.84;100105.50;1088208;47;949;-83
2023/10/17 00:51:22;;;;;;;;;;;;;;;6.29;66.98;100102.59;1088183;47;860;-82
2023/10/17 00:52:26;;;;;;;;;;;;;;;6.24;67.15;100115.34;1088365;47;957;-83
2023/10/17 00:53:27;;;;;;;;;;;;;;;6.21;67.49;100107.63;1088373;54;952;-82
2023/10/17 00:54:32;;;;;;;;;;;;;;;6.19;67.28;100112.22;1088363;54;993;-82
2023/10/17 00:55:37;;;;;;;;;;;;;;;6.16;67.24;100109.78;1088401;46;1361;-83
2023/10/17 00:56:40;;;;;;;;;;;;;;;6.14;67.18;100109.06;1088377;47;1052;-83
2023/10/17 00:57:45;;;;;;;;;;;;;;;6.13;67.29;100108.19;1088305;47;928;-83
2023/10/17 00:58:45;;;;;;;;;;;;;;;6.04;67.60;100107.09;1088498;54;1013;-83
2023/10/17 00:59:51;;;;;;;;;;;;;;;6.09;67.21;100110.25;1088426;47;946;-83
2023/10/17 01:00:59;;;;;;;;;;;;;;;6.07;67.53;100109.50;1088178;54;999;-82
2023/10/17 01:02:07;;;;;;;;;;;;;;;6.07;67.66;100109.50;1088325;47;915;-82
2023/10/17 01:03:10;;;;;;;;;;;;;;;6.08;67.24;100108.53;1088374;54;998;-83
2023/10/17 01:04:14;;;;;;;;;;;;;;;6.08;67.68;100108.53;1088897;54;941;-83
2023/10/17 01:05:16;;;;;;;;;;;;;;;6.01;67.61;100112.63;1088585;46;1347;-82
2023/10/17 01:06:34;;;;;;;;;;;;;;;5.95;67.86;100105.09;1088707;47;923;-82
2023/10/17 01:07:37;;;;;;;;;;;;;;;5.97;67.97;100112.94;1088656;54;1841;-84
2023/10/17 01:08:44;;;;;;;;;;;;;;;5.99;67.76;100106.56;1088526;54;1169;-82
2023/10/17 01:09:48;;;;;;;;;;;;;;;6.02;67.79;100106.34;1088418;47;926;-83
2023/10/17 01:10:50;;;;;;;;;;;;;;;6.05;67.50;100110.59;1088298;47;910;-82
2023/10/17 01:11:57;;;;;;;;;;;;;;;5.98;67.29;100106.66;1088391;54;972;-81
2023/10/17 01:13:02;;;;;;;;;;;;;;;6.02;67.38;100106.34;1088594;54;954;-82
2023/10/17 01:14:05;;;;;;;;;;;;;;;6.00;67.25;100102.13;1088592;54;985;-81
2023/10/17 01:15:06;;;;;;;;;;;;;;;5.93;67.80;100104.34;1088502;47;1345;-82
2023/10/17 01:16:07;;;;;;;;;;;;;;;5.97;67.72;100108.47;1088321;47;977;-82
2023/10/17 01:17:14;;;;;;;;;;;;;;;6.02;67.16;100103.69;1088196;47;884;-80
2023/10/17 01:18:14;;;;;;;;;;;;;;;5.99;67.17;100106.56;1088638;46;967;-81
2023/10/17 01:19:19;;;;;;;;;;;;;;;5.99;67.31;100095.97;1088145;47;923;-81
2023/10/17 01:20:20;;;;;;;;;;;;;;;5.99;67.59;100101.25;1088494;47;1172;-81
2023/10/17 01:21:26;;;;;;;;;;;;;;;5.92;67.57;100097.34;1087921;47;896;-82
2023/10/17 01:22:32;;;;;;;;;;;;;;;5.92;67.80;100092.03;1088326;54;958;-82
2023/10/17 01:23:35;;;;;;;;;;;;;;;5.97;67.70;100097.84;1088403;54;990;-83
2023/10/17 01:24:40;;;;;;;;;;;;;;;5.99;67.78;100100.41;1088136;47;942;-82
2023/10/17 01:25:56;;;;;;;;;;;;;;;5.91;67.69;100100.97;1088083;47;1410;-82
2023/10/17 01:26:57;;;;;;;;;;;;;;;5.86;67.92;100101.28;1088084;54;1014;-82
2023/10/17 01:28:31;;;;;;;;;;;;;;;5.82;67.68;100097.16;1088030;47;1841;-81
2023/10/17 01:29:34;;;;;;;;;;;;;;;5.88;67.76;100103.81;1088170;47;931;-81
2023/10/17 01:30:41;;;;;;;;;;;;;;;5.89;67.85;100100.22;1087926;47;1493;-81
2023/10/17 01:31:43;;;;;;;;;;;;;;;5.94;67.77;100100.75;1088222;54;918;-81
2023/10/17 01:32:47;;;;;;;;;;;;;;;5.86;67.95;100100.44;1088536;47;1446;-82
2023/10/17 01:33:49;;;;;;;;;;;;;;;5.93;67.90;100107.84;1088535;47;1504;-81
2023/10/17 01:34:52;;;;;;;;;;;;;;;5.94;67.44;100098.09;1088568;54;1101;-83
2023/10/17 01:35:53;;;;;;;;;;;;;;;5.94;67.67;100093.63;1088559;47;1449;-83
2023/10/17 01:36:57;;;;;;;;;;;;;;;5.91;68.14;100098.31;1088538;54;1025;-82
2023/10/17 01:37:58;;;;;;;;;;;;;;;5.94;67.69;100098.09;1088600;47;1519;-81
2023/10/17 01:39:03;;;;;;;;;;;;;;;5.96;67.55;100106.75;1088510;47;1345;-80
2023/10/17 01:40:08;;;;;;;;;;;;;;;5.95;68.00;100102.44;1088509;47;1596;-82
2023/10/17 01:41:12;;;;;;;;;;;;;;;5.90;67.99;100107.22;1088554;47;1463;-83
2023/10/17 01:42:13;;;;;;;;;;;;;;;5.90;67.92;100107.22;1088582;47;1514;-82
2023/10/17 01:43:16;;;;;;;;;;;;;;;5.90;67.75;100109.88;1088476;47;1537;-82
2023/10/17 01:44:17;;;;;;;;;;;;;;;5.87;67.90;100110.09;1088453;47;1636;-81
2023/10/17 01:45:22;;;;;;;;;;;;;;;5.83;68.23;100108.63;1088425;54;1445;-81
2023/10/17 01:46:22;;;;;;;;;;;;;;;5.84;68.19;100113.81;1088461;47;1367;-82
2023/10/17 01:47:26;;;;;;;;;;;;;;;5.90;67.83;100107.22;1088558;47;1844;-82
2023/10/17 01:48:26;;;;;;;;;;;;;;;5.87;68.07;100108.31;1088601;47;1520;-81
2023/10/17 01:49:31;;;;;;;;;;;;;;;5.91;68.25;100103.59;1088583;47;1489;-82
2023/10/17 01:50:33;;;;;;;;;;;;;;;5.87;68.01;100096.81;1088494;47;1477;-82
2023/10/17 01:51:36;;;;;;;;;;;;;;;5.74;68.29;100095.09;1088692;47;1397;-83
2023/10/17 01:52:37;;;;;;;;;;;;;;;5.63;68.74;100090.56;1088734;47;1567;-82
2023/10/17 01:53:39;;;;;;;;;;;;;;;5.65;68.97;100084.28;1088560;47;1436;-81
2023/10/17 01:54:47;;;;;;;;;;;;;;;5.58;69.21;100087.41;1088568;54;1108;-82
2023/10/17 01:56:06;;;;;;;;;;;;;;;5.60;69.28;100079.31;1088409;47;1537;-81
2023/10/17 01:57:12;;;;;;;;;;;;;;;5.66;69.16;100091.28;1088600;54;1172;-82
2023/10/17 01:58:15;;;;;;;;;;;;;;;5.63;69.15;100087.06;1088573;47;1538;-82
2023/10/17 01:59:25;;;;;;;;;;;;;;;5.54;69.78;100096.53;1088608;47;1541;-82
2023/10/17 02:00:29;;;;;;;;;;;;;;;5.49;70.03;100096.03;1088589;47;1504;-82
2023/10/17 02:01:36;;;;;;;;;;;;;;;5.50;69.83;100102.16;1088505;47;1516;-83
2023/10/17 02:02:42;;;;;;;;;;;;;;;5.44;70.08;100096.38;1088442;54;1040;-82
2023/10/17 02:03:46;;;;;;;;;;;;;;;5.47;69.99;100093.50;1088387;47;1562;-82
2023/10/17 02:04:49;;;;;;;;;;;;;;;5.50;69.67;100094.22;1088460;47;1594;-82
2023/10/17 02:05:50;;;;;;;;;;;;;;;5.46;69.37;100099.75;1088218;47;1461;-79
2023/10/17 02:06:54;;;;;;;;;;;;;;;5.51;69.63;100101.22;1087545;47;1225;-79
2023/10/17 02:07:55;;;;;;;;;;;;;;;5.50;69.59;100091.56;1087119;54;1922;-80
2023/10/17 02:08:59;;;;;;;;;;;;;;;5.46;69.60;100085.63;1087916;54;1022;-80
2023/10/17 02:10:01;;;;;;;;;;;;;;;5.41;69.55;100096.56;1088189;47;1157;-80
2023/10/17 02:11:13;;;;;;;;;;;;;;;5.45;69.67;100084.81;1088183;54;1134;-80
2023/10/17 02:12:14;;;;;;;;;;;;;;;5.40;69.88;100096.69;1088139;47;936;-80
2023/10/17 02:13:17;;;;;;;;;;;;;;;5.45;69.41;100091.88;1088413;47;937;-79
2023/10/17 02:14:18;;;;;;;;;;;;;;;5.42;69.56;100090.31;1088718;47;1067;-79
2023/10/17 02:15:23;;;;;;;;;;;;;;;5.49;69.53;100087.22;1088391;54;1501;-80
2023/10/17 02:16:24;;;;;;;;;;;;;;;5.40;69.76;100084.25;1088250;54;1164;-80
2023/10/17 02:17:28;;;;;;;;;;;;;;;5.28;70.10;100088.66;1088218;47;1059;-80
2023/10/17 02:18:29;;;;;;;;;;;;;;;5.25;70.26;100090.69;1088059;54;1131;-82
2023/10/17 02:19:38;;;;;;;;;;;;;;;5.24;70.22;100086.34;1087967;46;1150;-80
2023/10/17 02:20:45;;;;;;;;;;;;;;;5.30;70.08;100088.53;1088076;47;1016;-82
2023/10/17 02:21:49;;;;;;;;;;;;;;;5.32;70.02;100091.94;1087694;54;1103;-80
2023/10/17 02:22:51;;;;;;;;;;;;;;;5.34;69.63;100090.03;1087728;46;1138;-83
2023/10/17 02:23:57;;;;;;;;;;;;;;;5.34;69.73;100095.31;1088021;54;1091;-82
2023/10/17 02:24:58;;;;;;;;;;;;;;;5.34;69.66;100094.50;1088705;46;969;-81
2023/10/17 02:26:00;;;;;;;;;;;;;;;5.34;69.39;100084.72;1087789;54;1240;-80
2023/10/17 02:27:12;;;;;;;;;;;;;;;5.26;69.79;100093.22;1087990;54;1059;-80
2023/10/17 02:28:13;;;;;;;;;;;;;;;5.22;70.01;100091.75;1086146;46;1916;-80
2023/10/17 02:29:23;;;;;;;;;;;;;;;5.22;69.80;100097.06;1086608;47;1056;-80
2023/10/17 02:30:24;;;;;;;;;;;;;;;5.28;69.71;100096.59;1086689;54;1094;-80
2023/10/17 02:31:30;;;;;;;;;;;;;;;5.31;69.75;100101.69;1086363;47;988;-81
2023/10/17 02:32:31;;;;;;;;;;;;;;;5.42;69.44;100098.28;1086614;47;1197;-80
2023/10/17 02:33:33;;;;;;;;;;;;;;;5.44;69.21;100096.38;1087247;47;1142;-81
2023/10/17 02:34:38;;;;;;;;;;;;;;;5.39;69.71;100097.66;1088544;46;967;-82
2023/10/17 02:35:41;;;;;;;;;;;;;;;5.38;69.25;100096.81;1088560;54;1289;-83
2023/10/17 02:36:44;;;;;;;;;;;;;;;5.30;69.64;100091.19;1088598;47;1012;-83
2023/10/17 02:37:45;;;;;;;;;;;;;;;5.29;70.08;100097.47;1088471;54;1263;-81
2023/10/17 02:38:48;;;;;;;;;;;;;;;5.31;69.50;100090.22;1088627;54;974;-82
2023/10/17 02:39:49;;;;;;;;;;;;;;;5.35;69.49;100101.47;1088791;46;954;-83
2023/10/17 02:40:53;;;;;;;;;;;;;;;5.30;69.50;100093.84;1088863;46;940;-82
2023/10/17 02:42:06;;;;;;;;;;;;;;;5.23;69.66;100089.94;1088307;54;994;-84
2023/10/17 02:43:12;;;;;;;;;;;;;;;5.29;69.20;100092.16;1088446;54;1107;-83
2023/10/17 02:44:19;;;;;;;;;;;;;;;5.29;69.33;100095.66;1088240;46;1139;-83
2023/10/17 02:45:24;;;;;;;;;;;;;;;5.31;69.58;100095.53;1088515;54;1280;-83
2023/10/17 02:46:29;;;;;;;;;;;;;;;5.35;69.22;100097.03;1088400;46;861;-84
2023/10/17 02:47:30;;;;;;;;;;;;;;;5.41;69.04;100096.56;1088401;47;979;-84
2023/10/17 02:48:38;;;;;;;;;;;;;;;5.45;68.87;100100.72;1088281;54;893;-82
2023/10/17 02:49:43;;;;;;;;;;;;;;;5.44;68.90;100101.66;1088298;54;934;-82
2023/10/17 02:50:49;;;;;;;;;;;;;;;5.35;69.20;100101.47;1088382;47;976;-83
2023/10/17 02:51:53;;;;;;;;;;;;;;;5.32;69.22;100097.22;1088705;46;1019;-82
2023/10/17 02:52:57;;;;;;;;;;;;;;;5.36;69.35;100098.72;1088733;47;970;-80
2023/10/17 02:53:58;;;;;;;;;;;;;;;5.41;69.21;100095.75;1088716;54;1036;-82
2023/10/17 02:55:08;;;;;;;;;;;;;;;5.45;68.88;100084.81;1088682;54;1015;-83
2023/10/17 02:56:18;;;;;;;;;;;;;;;5.43;68.83;100096.47;1088789;46;897;-80
2023/10/17 02:57:21;;;;;;;;;;;;;;;5.37;68.78;100091.59;1088423;54;982;-82
2023/10/17 02:58:24;;;;;;;;;;;;;;;5.36;69.13;100093.41;1088771;54;923;-83
2023/10/17 02:59:28;;;;;;;;;;;;;;;5.36;68.73;100090.75;1088668;54;967;-83
2023/10/17 03:00:33;;;;;;;;;;;;;;;5.34;68.93;100095.31;1088483;47;925;-83
2023/10/17 03:01:39;;;;;;;;;;;;;;;5.36;68.78;100087.25;1088666;54;941;-83
2023/10/17 03:02:40;;;;;;;;;;;;;;;5.34;68.85;100089.19;1088559;47;965;-83
2023/10/17 03:03:40;;;;;;;;;;;;;;;5.38;68.65;100083.56;1088512;47;1322;-83
2023/10/17 03:04:44;;;;;;;;;;;;;;;5.42;68.63;100082.34;1088597;47;959;-82
2023/10/17 03:05:48;;;;;;;;;;;;;;;5.47;68.39;100082.88;1088691;54;1317;-82
2023/10/17 03:06:53;;;;;;;;;;;;;;;5.51;68.50;100086.16;1088643;54;955;-83
2023/10/17 03:07:54;;;;;;;;;;;;;;;5.57;68.38;100082.22;1088733;46;1846;-82
2023/10/17 03:09:00;;;;;;;;;;;;;;;5.60;68.22;100079.31;1088588;54;983;-82
2023/10/17 03:10:06;;;;;;;;;;;;;;;5.58;68.02;100073.28;1088523;54;988;-83
2023/10/17 03:11:16;;;;;;;;;;;;;;;5.47;68.54;100076.72;1088573;47;1144;-82
2023/10/17 03:12:29;;;;;;;;;;;;;;;5.44;68.41;100075.16;1088635;54;959;-84
2023/10/17 03:13:39;;;;;;;;;;;;;;;5.45;68.34;100071.53;1088657;54;1009;-82
2023/10/17 03:15:17;;;;;;;;;;;;;;;5.46;68.83;100078.53;1088784;54;929;-82
2023/10/17 03:16:15;;;;;;;;;;;;;;;5.42;68.53;100081.53;1088987;47;963;-84
2023/10/17 03:17:16;;;;;;;;;;;;;;;5.43;68.33;100086.72;1088676;54;964;-82
2023/10/17 03:18:19;;;;;;;;;;;;;;;5.36;69.20;100090.75;1088659;54;931;-84
2023/10/17 03:19:25;;;;;;;;;;;;;;;5.37;68.66;100089.81;1088825;46;983;-83
2023/10/17 03:20:36;;;;;;;;;;;;;;;5.44;68.47;100085.75;1088754;54;988;-83
2023/10/17 03:21:43;;;;;;;;;;;;;;;5.52;68.34;100089.66;1088775;47;901;-82
2023/10/17 03:22:44;;;;;;;;;;;;;;;5.54;68.34;100085.91;1088910;47;950;-83
2023/10/17 03:23:49;;;;;;;;;;;;;;;5.56;68.01;100086.66;1088541;54;1035;-83
2023/10/17 03:25:00;;;;;;;;;;;;;;;5.61;68.08;100086.31;1088613;54;983;-83
2023/10/17 03:26:01;;;;;;;;;;;;;;;5.66;67.88;100089.50;1088619;46;1238;-83
2023/10/17 03:27:04;;;;;;;;;;;;;;;5.69;67.94;100086.59;1088600;47;1081;-82
2023/10/17 03:28:08;;;;;;;;;;;;;;;5.72;67.98;100083.75;1088802;54;1860;-82
2023/10/17 03:29:13;;;;;;;;;;;;;;;5.71;67.65;100082.03;1088711;54;962;-82
2023/10/17 03:30:19;;;;;;;;;;;;;;;5.64;68.04;100086.13;1088757;46;965;-84
2023/10/17 03:31:26;;;;;;;;;;;;;;;5.59;67.62;100077.63;1088626;47;897;-82
2023/10/17 03:32:27;;;;;;;;;;;;;;;5.54;68.07;100090.38;1088448;54;1046;-83
2023/10/17 03:33:32;;;;;;;;;;;;;;;5.50;67.76;100086.25;1088397;46;936;-82
2023/10/17 03:34:35;;;;;;;;;;;;;;;5.39;68.15;100087.03;1088444;47;912;-82
2023/10/17 03:35:46;;;;;;;;;;;;;;;5.33;68.48;100083.03;1088245;47;1391;-83
2023/10/17 03:36:49;;;;;;;;;;;;;;;5.31;68.51;100084.94;1088284;47;978;-83
2023/10/17 03:37:51;;;;;;;;;;;;;;;5.31;68.43;100092.88;1088348;46;912;-81
2023/10/17 03:39:02;;;;;;;;;;;;;;;5.26;68.65;100089.72;1087901;54;967;-79
2023/10/17 03:40:15;;;;;;;;;;;;;;;5.26;68.54;100092.38;1088462;47;1056;-84
2023/10/17 03:41:24;;;;;;;;;;;;;;;5.20;68.75;100090.16;1088340;47;829;-84
2023/10/17 03:42:41;;;;;;;;;;;;;;;5.18;68.83;100100.88;1088327;47;945;-82
2023/10/17 03:43:52;;;;;;;;;;;;;;;5.13;69.02;100100.34;1088296;54;965;-83
2023/10/17 03:44:55;;;;;;;;;;;;;;;5.19;68.93;100101.72;1087947;54;1230;-83
2023/10/17 03:46:05;;;;;;;;;;;;;;;5.23;68.71;100100.53;1088546;54;1389;-82
2023/10/17 03:47:05;;;;;;;;;;;;;;;5.22;68.61;100099.69;1088499;46;881;-82
2023/10/17 03:48:13;;;;;;;;;;;;;;;5.27;68.58;100099.38;1088593;47;1853;-83
2023/10/17 03:49:18;;;;;;;;;;;;;;;5.33;68.49;100098.94;1088538;46;962;-83
2023/10/17 03:51:39;;;;;;;;;;;;;;;5.49;68.15;100098.69;1088581;47;974;-83
2023/10/17 03:52:40;;;;;;;;;;;;;;;5.54;67.98;100099.19;1088514;54;942;-82
2023/10/17 03:53:47;;;;;;;;;;;;;;;5.57;67.77;100095.47;1088622;46;944;-84
2023/10/17 03:54:47;;;;;;;;;;;;;;;5.63;67.61;100095.03;1088632;46;890;-82
2023/10/17 03:55:54;;;;;;;;;;;;;;;5.65;67.65;100090.47;1088475;46;1348;-83
2023/10/17 03:57:02;;;;;;;;;;;;;;;5.69;67.66;100094.56;1088567;54;967;-84
2023/10/17 03:58:18;;;;;;;;;;;;;;;5.70;67.58;100090.97;1088682;47;897;-84
2023/10/17 03:59:30;;;;;;;;;;;;;;;5.71;67.60;100092.66;1088525;54;910;-81
2023/10/17 04:00:41;;;;;;;;;;;;;;;5.72;67.53;100081.09;1088571;54;959;-84
2023/10/17 04:01:47;;;;;;;;;;;;;;;5.72;67.24;100078.44;1088482;47;1059;-83
2023/10/17 04:03:00;;;;;;;;;;;;;;;5.69;67.45;100077.81;1088631;47;976;-83
2023/10/17 04:04:02;;;;;;;;;;;;;;;5.70;67.52;100076.88;1088434;54;892;-83
2023/10/17 04:05:11;;;;;;;;;;;;;;;5.69;67.89;100073.34;1088566;46;1212;-83
2023/10/17 04:06:18;;;;;;;;;;;;;;;5.56;67.68;100080.53;1088587;54;892;-84
2023/10/17 04:07:22;;;;;;;;;;;;;;;5.49;67.98;100074.81;1088391;54;979;-82
2023/10/17 04:08:30;;;;;;;;;;;;;;;5.37;68.24;100078.34;1088297;54;1895;-83
2023/10/17 04:09:41;;;;;;;;;;;;;;;5.42;68.05;100074.41;1088523;47;963;-83
2023/10/17 04:10:49;;;;;;;;;;;;;;;5.41;68.09;100079.81;1088462;54;1139;-84
2023/10/17 04:11:50;;;;;;;;;;;;;;;5.39;68.18;100074.63;1088560;47;984;-83
2023/10/17 04:13:16;;;;;;;;;;;;;;;5.45;68.16;100079.50;1088420;54;1035;-85
2023/10/17 04:14:17;;;;;;;;;;;;;;;5.42;68.21;100077.06;1088421;47;928;-83
2023/10/17 04:15:24;;;;;;;;;;;;;;;5.41;68.33;100070.06;1088334;47;1313;-83
2023/10/17 04:16:33;;;;;;;;;;;;;;;5.41;68.22;100072.72;1088691;47;937;-84
2023/10/17 04:17:37;;;;;;;;;;;;;;;5.43;68.26;100057.53;1088487;54;1043;-83
2023/10/17 04:18:39;;;;;;;;;;;;;;;5.41;68.42;100064.75;1088303;47;896;-84
2023/10/17 04:19:46;;;;;;;;;;;;;;;5.40;68.61;100059.56;1088457;47;948;-83
2023/10/17 04:20:47;;;;;;;;;;;;;;;5.39;68.54;100061.34;1088183;54;990;-83
2023/10/17 04:22:02;;;;;;;;;;;;;;;5.39;68.44;100060.53;1088319;47;1043;-82
2023/10/17 04:23:05;;;;;;;;;;;;;;;5.38;68.62;100059.69;1088331;46;971;-83
2023/10/17 04:24:09;;;;;;;;;;;;;;;5.41;68.58;100062.09;1088454;54;925;-83
2023/10/17 04:25:19;;;;;;;;;;;;;;;5.42;68.52;100058.50;1088419;54;1379;-81
2023/10/17 04:26:27;;;;;;;;;;;;;;;5.38;68.54;100056.19;1088507;54;984;-84
2023/10/17 04:27:31;;;;;;;;;;;;;;;5.39;68.55;100061.34;1088442;47;857;-84
2023/10/17 04:28:34;;;;;;;;;;;;;;;5.37;68.63;100050.03;1088372;54;1986;-84
2023/10/17 04:29:35;;;;;;;;;;;;;;;5.38;68.43;100048.22;1088551;54;938;-82
2023/10/17 04:30:46;;;;;;;;;;;;;;;5.39;68.63;100047.28;1088487;54;1098;-83
2023/10/17 04:31:55;;;;;;;;;;;;;;;5.35;68.70;100051.94;1088459;54;993;-83
2023/10/17 04:33:09;;;;;;;;;;;;;;;5.28;68.87;100038.28;1088374;47;1004;-83
2023/10/17 04:34:14;;;;;;;;;;;;;;;5.30;69.02;100041.69;1088537;54;881;-82
2023/10/17 04:35:20;;;;;;;;;;;;;;;5.30;69.10;100043.47;1088473;54;1387;-84
2023/10/17 04:36:35;;;;;;;;;;;;;;;5.25;69.07;100043.81;1088416;47;965;-84
2023/10/17 04:37:44;;;;;;;;;;;;;;;5.26;69.04;100047.31;1088342;54;890;-83
2023/10/17 04:39:10;;;;;;;;;;;;;;;5.31;69.34;100045.16;1088305;47;987;-83
2023/10/17 04:41:40;;;;;;;;;;;;;;;5.17;69.32;100045.31;1088438;47;883;-83
2023/10/17 04:43:53;;;;;;;;;;;;;;;5.26;68.55;100039.38;1088084;54;1195;-83
2023/10/17 04:45:06;;;;;;;;;;;;;;;5.26;68.49;100039.38;1088414;47;985;-82
2023/10/17 04:46:08;;;;;;;;;;;;;;;5.31;68.33;100038.06;1088315;47;968;-83
2023/10/17 04:47:29;;;;;;;;;;;;;;;5.38;68.27;100038.47;1088396;46;1295;-84
2023/10/17 04:48:40;;;;;;;;;;;;;;;5.37;68.01;100041.22;1088287;54;1856;-82
2023/10/17 04:49:42;;;;;;;;;;;;;;;5.41;68.01;100046.19;1088364;54;887;-83
2023/10/17 04:50:45;;;;;;;;;;;;;;;5.42;67.58;100036.44;1088410;54;993;-83
2023/10/17 04:51:46;;;;;;;;;;;;;;;5.42;67.60;100037.28;1088422;54;978;-82
2023/10/17 04:52:51;;;;;;;;;;;;;;;5.47;67.81;100036.94;1088306;54;955;-83
2023/10/17 04:53:55;;;;;;;;;;;;;;;5.50;67.29;100041.16;1088407;54;943;-84
2023/10/17 04:55:09;;;;;;;;;;;;;;;5.56;67.38;100041.56;1088405;54;955;-84
2023/10/17 04:56:11;;;;;;;;;;;;;;;5.54;67.22;100038.19;1088449;47;1162;-83
2023/10/17 04:57:16;;;;;;;;;;;;;;;5.54;67.41;100040.84;1088577;54;964;-82
2023/10/17 04:58:30;;;;;;;;;;;;;;;5.60;67.27;100036.88;1088686;46;916;-83
2023/10/17 05:01:12;;;;;;;;;;;;;;;5.65;67.05;100045.38;1088583;47;973;-84
2023/10/17 05:02:36;;;;;;;;;;;;;;;5.60;67.61;100048.38;1088412;54;958;-82
2023/10/17 05:03:45;;;;;;;;;;;;;;;5.63;67.41;100041.97;1088401;54;867;-84
2023/10/17 05:06:37;;;;;;;;;;;;;;;5.54;67.46;100040.84;1088535;47;1051;-84
2023/10/17 05:07:58;;;;;;;;;;;;;;;5.47;67.48;100047.56;1088464;46;1192;-83
2023/10/17 05:09:12;;;;;;;;;;;;;;;5.46;67.62;100046.72;1088355;47;1894;-82
2023/10/17 06:16:54;;;;;;;;;;;;;;;5.07;69.59;100083.09;1088800;46;888;-82
2023/10/17 06:17:56;;;;;;;;;;;;;;;5.08;69.48;100081.25;1088736;46;963;-82
2023/10/17 06:19:02;;;;;;;;;;;;;;;5.00;69.71;100077.38;1088636;54;966;-83
2023/10/17 06:20:11;;;;;;;;;;;;;;;4.95;69.63;100082.16;1088605;47;988;-84
2023/10/17 06:21:19;;;;;;;;;;;;;;;4.92;69.75;100081.50;1088661;54;947;-82
2023/10/17 06:30:05;;;;;;;;;;;;;;;5.28;69.15;100093.13;1088644;47;1859;-83
2023/10/17 06:31:34;;;;;;;;;;;;;;;5.35;68.63;100086.41;1088846;46;886;-81
2023/10/17 06:33:02;;;;;;;;;;;;;;;5.26;69.04;100082.59;1088752;54;1024;-82
2023/10/17 06:34:06;;;;;;;;;;;;;;;5.30;68.88;100085.88;1088614;46;1063;-82
2023/10/17 06:35:20;;;;;;;;;;;;;;;5.31;68.86;100082.28;1088599;54;1326;-83
2023/10/17 06:36:25;;;;;;;;;;;;;;;5.36;68.97;100084.59;1088718;54;1106;-83
2023/10/17 06:37:32;;;;;;;;;;;;;;;5.26;69.13;100087.91;1088529;54;984;-84
2023/10/17 06:38:45;;;;;;;;;;;;;;;5.17;69.29;100082.44;1088429;54;977;-82
2023/10/17 06:39:47;;;;;;;;;;;;;;;5.13;69.47;100082.63;1088431;47;965;-82
2023/10/17 06:40:53;;;;;;;;;;;;;;;5.13;69.48;100080.00;1088573;54;939;-82
2023/10/17 06:42:13;;;;;;;;;;;;;;;5.15;69.47;100077.22;1088659;54;975;-83
2023/10/17 06:43:20;;;;;;;;;;;;;;;5.24;69.65;100083.69;1088599;54;904;-82
2023/10/17 06:44:33;;;;;;;;;;;;;;;5.26;69.63;100077.31;1088550;54;904;-83
2023/10/17 06:45:37;;;;;;;;;;;;;;;5.24;69.70;100078.38;1087832;54;1399;-83
2023/10/17 06:46:40;;;;;;;;;;;;;;;5.29;69.34;100077.09;1088665;54;991;-83
2023/10/17 06:47:47;;;;;;;;;;;;;;;5.29;69.38;100076.25;1088506;47;981;-82
2023/10/17 06:48:49;;;;;;;;;;;;;;;5.26;69.10;100076.47;1088450;47;1854;-82
2023/10/17 06:50:17;;;;;;;;;;;;;;;5.30;68.99;100078.78;1088461;54;1059;-82
2023/10/17 06:51:36;;;;;;;;;;;;;;;5.29;69.34;100081.56;1088588;54;864;-83
2023/10/17 06:52:40;;;;;;;;;;;;;;;5.30;69.20;100078.78;1088594;54;1035;-81
2023/10/17 06:53:41;;;;;;;;;;;;;;;5.39;68.90;100081.75;1088886;54;951;-84
2023/10/17 06:54:49;;;;;;;;;;;;;;;5.38;68.93;100072.94;1088754;46;982;-83
2023/10/17 06:55:58;;;;;;;;;;;;;;;5.32;68.74;100073.38;1088524;46;1241;-82
2023/10/17 06:57:18;;;;;;;;;;;;;;;5.37;68.82;100073.91;1088524;54;923;-82
2023/10/17 06:58:21;;;;;;;;;;;;;;;5.47;68.31;100074.06;1088607;54;947;-83
2023/10/17 06:59:33;;;;;;;;;;;;;;;5.43;68.61;100068.16;1088324;47;899;-84
2023/10/17 07:00:43;;;;;;;;;;;;;;;5.34;68.70;100079.41;1088518;54;963;-82
2023/10/17 07:01:48;;;;;;;;;;;;;;;5.12;69.31;100070.34;1087987;54;1043;-81
2023/10/17 07:02:48;;;;;;;;;;;;;;;4.99;69.85;100064.22;1088329;54;1055;-82
2023/10/17 07:03:54;;;;;;;;;;;;;;;4.99;69.80;100062.41;1088050;47;1219;-83
2023/10/17 07:04:55;;;;;;;;;;;;;;;5.03;69.83;100065.69;1088203;54;1067;-81
2023/10/17 07:06:09;;;;;;;;;;;;;;;4.99;70.13;100061.59;1088266;47;1284;-82
2023/10/17 07:07:15;;;;;;;;;;;;;;;5.03;70.46;100060.41;1088159;47;1095;-82
2023/10/17 07:08:20;;;;;;;;;;;;;;;5.06;69.84;100064.63;1088032;54;1103;-83
2023/10/17 07:09:24;;;;;;;;;;;;;;;5.00;70.09;100065.94;1088296;46;1855;-81
2023/10/17 07:10:37;;;;;;;;;;;;;;;5.06;70.28;100064.63;1088402;54;984;-82
2023/10/17 07:11:38;;;;;;;;;;;;;;;5.01;70.37;100062.31;1088355;47;962;-82
2023/10/17 07:12:55;;;;;;;;;;;;;;;4.94;70.37;100055.75;1087801;54;1412;-83
2023/10/17 07:14:10;;;;;;;;;;;;;;;4.98;70.24;100058.06;1088397;54;946;-82